Route Details

Aircraft Information
Group: North America Fleet
Types: B738, B752, B762, B763
Route Data
Distance: 316nm
Duration: 1h 30m
Origin METAR: KSFO 181656Z 33008KT 10SM FEW006 17/12 A2997 RMK AO2 SLP147 T01720122
Dest. METAR: KONT 181653Z 23003KT 10SM FEW130 26/14 A2994 RMK AO2 SLP122 T02610139
Freight Data
(for Aug 18, 2022)
Load Factor:
39%
Manifested Cargo: 41,736lbs
Financial History
Total Freight: 119,252lbs
Average Load: 0lbs/flt
Fuel Used: 25,234lbs
Avg. Fuel Used: 0lbs/flt
Fuel Expense: $14,098
Avg. Fuel Expense: $0
Avg. Fuel Cost: $0/lbs
Total Gross Income: $293,360
Pilot Pay: $826
Total Expenses: $62,852
Total Revenue: $214,657
Average Revenue: $0

Capitol Logistics 414




KSFO
San Francisco International Airport
San Francisco, California
KONT
Ontario International Airport
Ontario, California

Activity Log

Date Flight Route Aircraft Duration
08/12/2022 CPX414 SSTIK5 KAYEX DCT LOSHN DCT EHF ZIGGY7 B738 1h 24m
07/15/2022 CPX414 SSTIK5 KAYEX DCT LOSHN DCT EHF ZIGGY7 B738 1h 18m
07/15/2022 CPX414 NIITE3 GOBBS KAYEX LOSHN EHF ZIGGY7 B763 1h 05m
07/13/2022 CPX414 NIITE3 GOBBS KAYEX LOSHN EHF ZIGGY7 B738 1h 15m